Country
Station

 

Weather  for  Boise, Boise Air Terminal  -  United States    United States

  
21 °C (70 °F)
    
 
 

Current METAR for Boise, Boise Air Terminal is :

KBOI 171053Z 00000KT 10SM CLR 21/09 A3007 RMK AO2 SLP145 T02110089

 

This is a report for Boise, Boise Air Terminal - United States.
 
The report was made 19 minutes ago, at 10:53 UTC .
The wind was calm.
 
The temperature was 21 °C (70 °F), with a dew-point at 9 °C (48 °F).
The atmospheric pressure was 1018 hPa (30.07 inHg).
The relative humidity was 46.2%.
 
The sky was clear.
 
The overall visibility was 16.1 kilometers (10.0 miles).
 

 
 
 
 

Country :   A   B   C   D   E   F   G   H   I   J   K   L   M   N   O   P   Q   R   S   T   U   V   W   Y   Z

 

Site Info  |  Disclaimer  |  Credits  |  Privacy
Contact us  |  Add to favorites
© 2013-2018 METARs - All rights reserved